createdAt,value
2018-03-27T00:00:04.923Z,962.63
2018-03-27T00:15:05.298Z,962.71
2018-03-27T00:30:04.890Z,962.63
2018-03-27T00:45:04.369Z,962.57
2018-03-27T01:00:04.910Z,962.98
2018-03-27T01:15:05.275Z,963.3
2018-03-27T01:30:04.822Z,963.76
2018-03-27T01:45:04.697Z,963.84
2018-03-27T02:00:04.646Z,963.81
2018-03-27T02:15:05.159Z,963.79
2018-03-27T02:30:04.775Z,963.79
2018-03-27T02:45:05.171Z,963.95
2018-03-27T03:00:05.039Z,963.95
2018-03-27T03:15:04.923Z,964.14
2018-03-27T03:30:04.604Z,964
2018-03-27T03:45:04.586Z,964.03
2018-03-27T04:00:04.515Z,964.06
2018-03-27T04:15:04.875Z,964.03
2018-03-27T04:30:05.165Z,964.03
2018-03-27T04:45:05.141Z,964.17
2018-03-27T05:00:05.095Z,964.27
2018-03-27T05:15:04.533Z,964.11
2018-03-27T05:30:05.681Z,964.3
2018-03-27T05:45:05.275Z,964.52
2018-03-27T06:00:04.745Z,964.46
2018-03-27T06:15:05.231Z,964.3
2018-03-27T06:30:04.377Z,964.33
2018-03-27T06:45:04.801Z,964.08
2018-03-27T07:00:04.792Z,963.65
2018-03-27T07:15:04.914Z,963.36
2018-03-27T07:30:04.637Z,962.55
2018-03-27T07:45:05.030Z,962.2
2018-03-27T08:00:04.441Z,960.25
2018-03-27T08:15:04.354Z,965.22
2018-03-27T08:30:04.667Z,961.73
2018-03-27T08:45:05.068Z,960.03
2018-03-27T09:00:05.042Z,960.25
2018-03-27T09:15:04.945Z,964.27
2018-03-27T09:30:04.644Z,958.74
2018-03-27T09:45:04.548Z,958.63
2018-03-27T10:00:05.006Z,958.55
2018-03-27T10:15:04.951Z,958.44
2018-03-27T10:30:04.622Z,958.2
2018-03-27T10:45:05.005Z,965.17
2018-03-27T11:00:04.978Z,957.72
2018-03-27T11:15:04.898Z,964.57
2018-03-27T11:30:04.552Z,963.95
2018-03-27T11:45:04.570Z,963.78
2018-03-27T12:00:04.507Z,963.49
2018-03-27T12:15:04.908Z,963.57
2018-03-27T12:30:05.040Z,956.77
2018-03-27T12:45:04.517Z,956.96
2018-03-27T13:00:04.454Z,962.64
2018-03-27T13:15:04.929Z,955.34
2018-03-27T13:30:05.646Z,962.37
2018-03-27T13:45:05.059Z,961.66
2018-03-27T14:00:04.682Z,961.5
2018-03-27T14:15:05.228Z,960.74
2018-03-27T14:30:04.440Z,960.33
2018-03-27T14:45:05.135Z,960.36
2018-03-27T15:00:05.186Z,960.57
2018-03-27T15:15:05.515Z,960.55
2018-03-27T15:30:05.414Z,960.41
2018-03-27T15:45:04.376Z,960.66
2018-03-27T16:00:04.890Z,960.71
2018-03-27T16:15:04.813Z,953.61
2018-03-27T16:30:05.045Z,954.13
2018-03-27T16:45:04.973Z,954.8
2018-03-27T17:00:04.407Z,955.26
2018-03-27T17:15:04.564Z,955.39
2018-03-27T17:30:04.747Z,955.45
2018-03-27T17:45:04.723Z,956.2
2018-03-27T18:00:04.736Z,956.82
2018-03-27T18:15:05.514Z,957.47
2018-03-27T18:30:04.666Z,957.99
2018-03-27T18:45:04.765Z,958.31
2018-03-27T19:00:05.213Z,959.01
2018-03-27T19:15:05.296Z,958.47
2018-03-27T19:30:04.949Z,958.96
2018-03-27T19:45:04.548Z,959.17
2018-03-27T20:00:04.842Z,958.96
2018-03-27T20:15:05.258Z,958.96
2018-03-27T20:30:05.042Z,958.93
2018-03-27T20:45:05.190Z,958.79
2018-03-27T21:00:04.692Z,958.63
2018-03-27T21:15:05.198Z,958.88
2018-03-27T21:30:05.302Z,958.74
2018-03-27T21:45:05.419Z,958.69
2018-03-27T22:00:05.629Z,958.93
2018-03-27T22:15:04.612Z,958.96
2018-03-27T22:30:05.350Z,958.52
2018-03-27T22:45:04.734Z,958.01
2018-03-27T23:00:05.123Z,958.09
2018-03-27T23:15:05.266Z,957.66
2018-03-27T23:30:05.118Z,957.77
2018-03-27T23:45:05.234Z,957.8
